Time;durP1;ratioP1;P1;durP2;ratioP2;P2;SDS_P1;SDS_P2;PMS_P1;PMS_P2;Temp;Humidity;BMP_temperature;BMP_pressure;BME280_temperature;BME280_humidity;BME280_pressure;Samples;Min_cycle;Max_cycle;Signal;HPM_P1;HPM_P2
2023/03/29 00:02:29;;;;;;;1999.90;999.90;;;22.60;99.90;;;;;;5033137;28;20392;-74
2023/03/29 00:05:00;;;;;;;1999.90;999.90;;;22.50;99.90;;;;;;5032947;28;20579;-72
2023/03/29 00:07:32;;;;;;;1999.90;999.90;;;22.40;99.90;;;;;;5030111;28;20092;-71
2023/03/29 00:10:03;;;;;;;1999.90;999.90;;;22.40;99.90;;;;;;5037150;28;20334;-72
2023/03/29 00:12:31;;;;;;;1999.90;999.90;;;22.40;99.90;;;;;;5033474;28;20083;-72
2023/03/29 00:14:59;;;;;;;1999.90;999.90;;;22.40;99.90;;;;;;5035968;28;20029;-72
2023/03/29 00:17:26;;;;;;;1999.90;999.90;;;22.50;99.90;;;;;;5033237;28;20028;-73
2023/03/29 00:19:54;;;;;;;1999.90;999.90;;;22.60;99.90;;;;;;5037423;28;20060;-72
2023/03/29 00:22:21;;;;;;;1999.90;999.90;;;22.90;99.90;;;;;;5031397;28;20061;-71
2023/03/29 00:24:52;;;;;;;1999.90;999.90;;;23.10;99.90;;;;;;5032901;28;20032;-73
2023/03/29 00:27:23;;;;;;;1999.90;999.90;;;23.10;99.90;;;;;;5030661;28;20112;-72
2023/03/29 00:29:50;;;;;;;1999.90;999.90;;;23.10;99.90;;;;;;5038299;28;20036;-72
2023/03/29 00:32:17;;;;;;;1999.90;999.90;;;23.00;99.90;;;;;;5031231;28;20086;-72
2023/03/29 00:34:45;;;;;;;1999.90;999.90;;;23.00;99.90;;;;;;5033023;28;20049;-72
2023/03/29 00:37:13;;;;;;;1999.90;999.90;;;22.90;99.90;;;;;;5029873;28;20026;-73
2023/03/29 00:39:41;;;;;;;1999.90;999.90;;;23.00;99.90;;;;;;5038561;28;20064;-73
2023/03/29 00:42:18;;;;;;;1999.90;999.90;;;23.20;99.90;;;;;;5028839;28;20041;-72
2023/03/29 00:44:57;;;;;;;1999.90;999.90;;;23.30;99.90;;;;;;5031064;28;20517;-71
2023/03/29 00:47:45;;;;;;;1999.90;999.90;;;23.50;99.90;;;;;;5028922;28;20535;-71
2023/03/29 00:50:16;;;;;;;1999.90;999.90;;;23.60;99.90;;;;;;5036149;28;20123;-74
2023/03/29 00:52:47;;;;;;;1999.90;999.90;;;23.70;99.90;;;;;;5029238;28;20041;-71
2023/03/29 00:55:22;;;;;;;1999.90;999.90;;;23.90;99.90;;;;;;5036582;28;20025;-70
2023/03/29 00:57:52;;;;;;;1999.90;999.90;;;24.60;99.90;;;;;;5030789;28;20029;-72
2023/03/29 01:00:25;;;;;;;1999.90;999.90;;;25.40;99.90;;;;;;5032672;28;20025;-71
2023/03/29 01:02:58;;;;;;;1999.90;999.90;;;26.50;99.90;;;;;;5033192;28;20025;-70
2023/03/29 01:05:37;;;;;;;1999.90;999.90;;;27.40;99.90;;;;;;5030895;28;21236;-73
2023/03/29 01:08:10;;;;;;;1999.90;999.90;;;27.40;99.90;;;;;;5029536;28;20103;-72
2023/03/29 01:11:03;;;;;;;1999.90;999.90;;;27.50;99.90;;;;;;5026527;28;20033;-72
2023/03/29 01:13:45;;;;;;;1999.90;999.90;;;27.70;99.90;;;;;;5029971;28;20037;-72
2023/03/29 01:16:19;;;;;;;1999.90;999.90;;;28.20;99.90;;;;;;5025120;28;20430;-73
2023/03/29 01:18:47;;;;;;;1999.90;999.90;;;27.90;99.90;;;;;;5027890;28;20025;-72
2023/03/29 01:21:24;;;;;;;1999.90;999.90;;;27.70;99.90;;;;;;5029991;28;20480;-72
2023/03/29 01:24:10;;;;;;;1999.90;999.90;;;27.30;99.90;;;;;;5029902;28;20029;-73
2023/03/29 01:26:50;;;;;;;1999.90;999.90;;;27.10;99.90;;;;;;5040075;28;20029;-71
2023/03/29 01:29:59;;;;;;;1999.90;999.90;;;26.90;99.90;;;;;;5027777;28;20025;-72
2023/03/29 01:32:41;;;;;;;1999.90;999.90;;;26.70;99.90;;;;;;5031510;28;20071;-72
2023/03/29 01:35:27;;;;;;;1999.90;999.90;;;27.20;99.90;;;;;;5040294;28;21053;-71
2023/03/29 01:38:02;;;;;;;1999.90;999.90;;;28.10;99.90;;;;;;5034284;28;20403;-71
2023/03/29 01:40:31;;;;;;;1999.90;999.90;;;28.60;99.90;;;;;;5028592;28;20037;-72
2023/03/29 01:43:20;;;;;;;1999.90;999.90;;;28.10;99.90;;;;;;5035453;28;20475;-72
2023/03/29 01:46:10;;;;;;;1999.90;999.90;;;27.50;99.90;;;;;;5035327;28;20465;-71
2023/03/29 01:48:46;;;;;;;1999.90;999.90;;;26.80;99.90;;;;;;5032112;28;20037;-71
2023/03/29 01:51:29;;;;;;;1999.90;999.90;;;26.50;99.90;;;;;;5031665;28;20484;-72
2023/03/29 01:54:00;;;;;;;1999.90;999.90;;;26.20;99.90;;;;;;5035552;28;20136;-70
2023/03/29 01:56:29;;;;;;;1999.90;999.90;;;26.10;99.90;;;;;;5037021;28;20502;-72
2023/03/29 01:59:02;;;;;;;1999.90;999.90;;;26.00;99.90;;;;;;5034363;28;20071;-72
2023/03/29 02:01:37;;;;;;;1999.90;999.90;;;25.90;99.90;;;;;;5036730;28;20082;-71
2023/03/29 02:04:09;;;;;;;1999.90;999.90;;;25.70;99.90;;;;;;5028542;28;20033;-72
2023/03/29 02:06:38;;;;;;;1999.90;999.90;;;25.70;99.90;;;;;;5025559;28;20037;-72
2023/03/29 02:09:06;;;;;;;1999.90;999.90;;;25.70;99.90;;;;;;5034331;28;20110;-71
2023/03/29 02:11:35;;;;;;;1999.90;999.90;;;25.70;99.90;;;;;;5037182;28;20033;-71
2023/03/29 02:14:03;;;;;;;1999.90;999.90;;;25.80;99.90;;;;;;5035380;28;20040;-71
2023/03/29 02:16:35;;;;;;;1999.90;999.90;;;26.00;99.90;;;;;;5031283;28;20032;-73
2023/03/29 02:19:04;;;;;;;1999.90;999.90;;;26.20;99.90;;;;;;5029787;28;20038;-71
2023/03/29 02:21:47;;;;;;;1999.90;999.90;;;26.30;99.90;;;;;;5040616;28;20411;-71
2023/03/29 02:24:18;;;;;;;1999.90;999.90;;;26.50;99.90;;;;;;5031687;28;20029;-72
2023/03/29 02:26:46;;;;;;;1999.90;999.90;;;27.50;99.90;;;;;;5037940;28;20036;-72
2023/03/29 02:29:14;;;;;;;1999.90;999.90;;;27.90;99.90;;;;;;5032562;28;20481;-73
2023/03/29 02:31:45;;;;;;;1999.90;999.90;;;27.70;99.90;;;;;;5029997;28;20108;-72
2023/03/29 02:34:25;;;;;;;1999.90;999.90;;;27.60;99.90;;;;;;5034945;28;20153;-72
2023/03/29 02:36:58;;;;;;;1999.90;999.90;;;27.40;99.90;;;;;;5030630;28;20041;-71
2023/03/29 02:39:28;;;;;;;1999.90;999.90;;;27.00;99.90;;;;;;5031060;28;20075;-73
2023/03/29 02:41:56;;;;;;;1999.90;999.90;;;26.70;99.90;;;;;;5031191;28;20021;-73
2023/03/29 02:44:30;;;;;;;1999.90;999.90;;;26.40;99.90;;;;;;5032892;28;20026;-72
2023/03/29 02:47:05;;;;;;;1999.90;999.90;;;26.60;99.90;;;;;;5028874;28;20060;-73
2023/03/29 02:49:32;;;;;;;1999.90;999.90;;;26.70;99.90;;;;;;5031828;28;20036;-73
2023/03/29 02:52:08;;;;;;;1999.90;999.90;;;26.60;99.90;;;;;;5038619;28;20445;-71
2023/03/29 02:54:42;;;;;;;1999.90;999.90;;;26.40;99.90;;;;;;5025711;28;20033;-71
2023/03/29 02:57:11;;;;;;;1999.90;999.90;;;26.20;99.90;;;;;;5027023;28;20403;-71
2023/03/29 02:59:39;;;;;;;1999.90;999.90;;;26.00;99.90;;;;;;5032064;28;20025;-71
2023/03/29 03:02:07;;;;;;;1999.90;999.90;;;25.70;99.90;;;;;;5035257;28;20543;-71
2023/03/29 03:04:34;;;;;;;1999.90;999.90;;;25.50;99.90;;;;;;5033511;28;20129;-72
2023/03/29 03:07:03;;;;;;;1999.90;999.90;;;25.20;99.90;;;;;;5034784;28;20086;-72
2023/03/29 03:09:32;;;;;;;1999.90;999.90;;;25.10;99.90;;;;;;5031057;28;20038;-73
2023/03/29 03:11:59;;;;;;;1999.90;999.90;;;25.10;99.90;;;;;;5037221;28;20076;-74
2023/03/29 03:14:27;;;;;;;1999.90;999.90;;;25.00;99.90;;;;;;5032604;28;20113;-72
2023/03/29 03:16:56;;;;;;;1999.90;999.90;;;25.00;99.90;;;;;;5025013;28;20084;-71
2023/03/29 03:19:23;;;;;;;1999.90;999.90;;;25.00;99.90;;;;;;5029723;28;20030;-72
2023/03/29 03:21:51;;;;;;;1999.90;999.90;;;25.00;99.90;;;;;;5035085;28;20025;-71
2023/03/29 03:24:18;;;;;;;1999.90;999.90;;;25.20;99.90;;;;;;5034882;28;20380;-72
2023/03/29 03:26:46;;;;;;;1999.90;999.90;;;25.20;99.90;;;;;;5046983;28;20024;-71
2023/03/29 03:29:16;;;;;;;1999.90;999.90;;;25.40;99.90;;;;;;5042216;28;20052;-71
2023/03/29 03:31:44;;;;;;;1999.90;999.90;;;25.70;99.90;;;;;;5055211;28;20048;-70
2023/03/29 03:34:11;;;;;;;1999.90;999.90;;;26.00;99.90;;;;;;5043715;28;20395;-71
2023/03/29 03:36:39;;;;;;;1999.90;999.90;;;26.10;99.90;;;;;;5042282;28;20032;-71
2023/03/29 03:39:06;;;;;;;1999.90;999.90;;;26.00;99.90;;;;;;5037147;28;20502;-70
2023/03/29 03:41:34;;;;;;;1999.90;999.90;;;25.90;99.90;;;;;;5043415;28;20075;-71
2023/03/29 03:44:02;;;;;;;1999.90;999.90;;;25.80;99.90;;;;;;5035635;28;20554;-73
2023/03/29 03:46:29;;;;;;;1999.90;999.90;;;25.80;99.90;;;;;;5043633;28;20053;-72
2023/03/29 03:48:58;;;;;;;1999.90;999.90;;;25.80;99.90;;;;;;5036945;28;20479;-71
2023/03/29 03:51:25;;;;;;;1999.90;999.90;;;26.00;99.90;;;;;;5038846;28;20116;-71
2023/03/29 03:53:53;;;;;;;1999.90;999.90;;;26.30;99.90;;;;;;5036811;28;20033;-70
2023/03/29 03:56:20;;;;;;;1999.90;999.90;;;26.50;99.90;;;;;;5043487;28;20021;-73
2023/03/29 03:58:47;;;;;;;1999.90;999.90;;;26.90;99.90;;;;;;5039549;28;20033;-73
2023/03/29 04:01:15;;;;;;;1999.90;999.90;;;27.30;99.90;;;;;;5034893;28;20033;-72
2023/03/29 04:03:43;;;;;;;1999.90;999.90;;;27.50;99.90;;;;;;5039519;28;20053;-72
2023/03/29 04:06:11;;;;;;;1999.90;999.90;;;27.70;99.90;;;;;;5042077;28;20032;-72
2023/03/29 04:08:39;;;;;;;1999.90;999.90;;;28.00;99.90;;;;;;5037431;28;20033;-72
2023/03/29 04:11:06;;;;;;;1999.90;999.90;;;28.10;99.90;;;;;;5040740;28;20465;-73
2023/03/29 04:13:33;;;;;;;1999.90;999.90;;;28.20;99.90;;;;;;5041520;28;20091;-73
2023/03/29 04:16:02;;;;;;;1999.90;999.90;;;28.40;99.90;;;;;;5041561;28;20049;-71
2023/03/29 04:18:30;;;;;;;1999.90;999.90;;;28.50;99.90;;;;;;5031993;28;20054;-72
2023/03/29 04:20:57;;;;;;;1999.90;999.90;;;28.60;99.90;;;;;;5036152;28;20013;-71
2023/03/29 04:23:24;;;;;;;1999.90;999.90;;;28.70;99.90;;;;;;5034995;28;20043;-72
2023/03/29 04:25:55;;;;;;;1999.90;999.90;;;28.70;99.90;;;;;;5028955;28;20301;-70
2023/03/29 04:28:23;;;;;;;1999.90;999.90;;;28.70;99.90;;;;;;5034628;28;20116;-72
2023/03/29 04:30:51;;;;;;;1999.90;999.90;;;28.70;99.90;;;;;;5045597;28;20029;-73
2023/03/29 04:33:18;;;;;;;1999.90;999.90;;;28.70;97.70;;;;;;5029685;28;20092;-71
2023/03/29 04:35:46;;;;;;;1999.90;999.90;;;28.70;97.30;;;;;;5037166;28;20036;-71
2023/03/29 04:38:15;;;;;;;1999.90;999.90;;;28.80;96.30;;;;;;5030992;28;20033;-70
2023/03/29 04:40:42;;;;;;;1999.90;999.90;;;29.00;93.80;;;;;;5031829;28;20036;-72
2023/03/29 04:43:11;;;;;;;1999.90;999.90;;;28.90;93.80;;;;;;5031286;28;20479;-72
2023/03/29 04:45:38;;;;;;;1999.90;999.90;;;29.20;94.40;;;;;;5027983;28;20104;-70
2023/03/29 04:48:05;;;;;;;1999.90;999.90;;;29.50;94.10;;;;;;5023721;28;20480;-71
2023/03/29 04:50:35;;;;;;;1999.90;999.90;;;29.80;93.50;;;;;;5031105;28;20048;-72
2023/03/29 04:53:02;;;;;;;1999.90;999.90;;;30.00;93.20;;;;;;5033061;28;20489;-72
2023/03/29 04:55:29;;;;;;;1999.90;999.90;;;30.20;92.50;;;;;;5032160;28;20056;-73
2023/03/29 04:57:57;;;;;;;1999.90;999.90;;;30.30;92.80;;;;;;5032657;28;20027;-72
2023/03/29 05:00:26;;;;;;;1999.90;999.90;;;30.20;91.70;;;;;;5039951;28;20033;-71
2023/03/29 05:02:54;;;;;;;1999.90;999.90;;;30.00;91.50;;;;;;5031638;28;20070;-70
2023/03/29 05:05:21;;;;;;;1999.90;999.90;;;29.90;92.10;;;;;;5032023;28;20030;-71
2023/03/29 05:07:49;;;;;;;1999.90;999.90;;;30.00;91.90;;;;;;5035586;28;20082;-72
2023/03/29 05:10:17;;;;;;;1999.90;999.90;;;30.00;91.10;;;;;;5041817;28;20036;-72
2023/03/29 05:12:44;;;;;;;1999.90;999.90;;;29.70;90.60;;;;;;5031503;28;20036;-72
2023/03/29 05:15:12;;;;;;;1999.90;999.90;;;29.70;91.30;;;;;;5041611;28;20092;-72
2023/03/29 05:17:39;;;;;;;1999.90;999.90;;;29.60;91.10;;;;;;5030358;28;20136;-72
2023/03/29 05:20:11;;;;;;;1999.90;999.90;;;29.60;91.20;;;;;;5039653;28;20112;-72
2023/03/29 05:22:39;;;;;;;1999.90;999.90;;;29.70;91.20;;;;;;5031293;28;20020;-72
2023/03/29 05:25:07;;;;;;;1999.90;999.90;;;29.80;90.80;;;;;;5037143;28;20116;-73
2023/03/29 05:27:35;;;;;;;1999.90;999.90;;;29.80;90.60;;;;;;5027555;28;20029;-72
2023/03/29 05:30:03;;;;;;;1999.90;999.90;;;29.90;88.80;;;;;;5023944;28;20029;-72
2023/03/29 05:32:31;;;;;;;1999.90;999.90;;;29.70;88.80;;;;;;5020554;28;20037;-72
2023/03/29 05:34:58;;;;;;;1999.90;999.90;;;29.80;89.00;;;;;;5025662;28;20506;-73
2023/03/29 05:37:25;;;;;;;1999.90;999.90;;;29.70;87.10;;;;;;5032133;28;20034;-73
2023/03/29 05:39:53;;;;;;;1999.90;999.90;;;29.60;87.40;;;;;;5039391;28;20040;-72
2023/03/29 05:42:21;;;;;;;1999.90;999.90;;;29.60;88.50;;;;;;5033194;28;20490;-71
2023/03/29 05:44:48;;;;;;;1999.90;999.90;;;29.60;88.70;;;;;;5037596;28;20033;-72
2023/03/29 05:47:16;;;;;;;1999.90;999.90;;;29.50;88.90;;;;;;5032556;28;20117;-72
2023/03/29 05:49:43;;;;;;;1999.90;999.90;;;29.60;87.50;;;;;;5035534;28;20076;-73
2023/03/29 05:52:11;;;;;;;1999.90;999.90;;;29.50;86.30;;;;;;5032782;28;20539;-71
2023/03/29 05:54:40;;;;;;;1999.90;999.90;;;29.40;87.70;;;;;;5033161;28;20056;-72
2023/03/29 05:57:07;;;;;;;1999.90;999.90;;;29.30;86.70;;;;;;5027834;28;20048;-72
2023/03/29 05:59:34;;;;;;;1999.90;999.90;;;29.10;86.80;;;;;;5036078;28;20487;-72
2023/03/29 06:02:03;;;;;;;1999.90;999.90;;;29.00;86.50;;;;;;5037597;28;20036;-71
2023/03/29 06:04:32;;;;;;;1999.90;999.90;;;28.90;87.20;;;;;;5035133;28;20041;-71
2023/03/29 06:07:00;;;;;;;1999.90;999.90;;;28.80;87.80;;;;;;5033529;28;20021;-69
2023/03/29 06:09:28;;;;;;;1999.90;999.90;;;28.80;86.40;;;;;;5033935;28;20506;-69
2023/03/29 06:11:57;;;;;;;1999.90;999.90;;;28.80;87.70;;;;;;5031196;28;20029;-71
2023/03/29 06:14:26;;;;;;;1999.90;999.90;;;28.70;87.50;;;;;;5030062;28;20088;-70
2023/03/29 06:16:53;;;;;;;1999.90;999.90;;;28.70;88.70;;;;;;5029127;28;20028;-71
2023/03/29 06:19:21;;;;;;;1999.90;999.90;;;28.70;88.10;;;;;;5033358;28;20044;-71
2023/03/29 06:21:51;;;;;;;1999.90;999.90;;;28.60;89.30;;;;;;5033214;28;20026;-70
2023/03/29 06:24:19;;;;;;;1999.90;999.90;;;28.60;88.50;;;;;;5029888;28;20034;-71
2023/03/29 06:26:47;;;;;;;1999.90;999.90;;;28.60;89.40;;;;;;5029297;28;20557;-70
2023/03/29 06:29:14;;;;;;;1999.90;999.90;;;28.60;88.90;;;;;;5030225;28;20464;-71
2023/03/29 06:31:41;;;;;;;1999.90;999.90;;;28.60;90.20;;;;;;5030961;28;20056;-69
2023/03/29 06:34:09;;;;;;;1999.90;999.90;;;28.60;90.80;;;;;;5034377;28;20036;-70
2023/03/29 06:36:36;;;;;;;1999.90;999.90;;;28.60;90.80;;;;;;5034505;28;20488;-70
2023/03/29 06:39:07;;;;;;;1999.90;999.90;;;28.50;91.00;;;;;;5030332;28;20364;-70
2023/03/29 06:41:35;;;;;;;1999.90;999.90;;;28.50;91.00;;;;;;5029571;28;20427;-70
2023/03/29 06:44:02;;;;;;;1999.90;999.90;;;28.30;91.40;;;;;;5042781;28;20029;-71
2023/03/29 06:46:30;;;;;;;1999.90;999.90;;;28.20;91.10;;;;;;5047607;28;20514;-71
2023/03/29 06:48:57;;;;;;;1999.90;999.90;;;28.10;90.40;;;;;;5040792;28;20057;-71
2023/03/29 06:51:25;;;;;;;1999.90;999.90;;;28.00;90.40;;;;;;5046702;28;20076;-71
2023/03/29 06:53:52;;;;;;;1999.90;999.90;;;27.80;91.10;;;;;;5034784;28;20041;-70
2023/03/29 06:56:21;;;;;;;1999.90;999.90;;;27.70;91.20;;;;;;5030919;28;20038;-71
2023/03/29 06:58:48;;;;;;;1999.90;999.90;;;27.60;90.80;;;;;;5033664;28;20037;-71
2023/03/29 07:01:15;;;;;;;1999.90;999.90;;;27.40;91.30;;;;;;5036903;28;20023;-70
2023/03/29 07:03:44;;;;;;;1999.90;999.90;;;27.30;91.10;;;;;;5038640;28;20033;-70
2023/03/29 07:06:13;;;;;;;1999.90;999.90;;;27.10;91.90;;;;;;5039811;28;20030;-71
2023/03/29 07:08:46;;;;;;;1999.90;999.90;;;27.00;91.90;;;;;;5030479;28;20408;-70
2023/03/29 07:11:15;;;;;;;1999.90;999.90;;;26.80;92.00;;;;;;5035348;28;20503;-70
2023/03/29 07:13:43;;;;;;;1999.90;999.90;;;26.70;92.60;;;;;;5035365;28;20045;-71
2023/03/29 07:16:12;;;;;;;1999.90;999.90;;;26.60;93.50;;;;;;5041067;28;20032;-71
2023/03/29 07:18:43;;;;;;;1999.90;999.90;;;26.40;93.00;;;;;;5034561;28;20036;-71
2023/03/29 07:21:12;;;;;;;1999.90;999.90;;;26.20;93.30;;;;;;5039437;28;20526;-71
2023/03/29 07:23:41;;;;;;;1999.90;999.90;;;26.00;93.40;;;;;;5041890;28;20033;-71
2023/03/29 07:26:09;;;;;;;1999.90;999.90;;;25.80;93.60;;;;;;5041792;28;20594;-70
2023/03/29 07:28:38;;;;;;;1999.90;999.90;;;25.60;94.00;;;;;;5037988;28;20042;-70
2023/03/29 07:31:10;;;;;;;1999.90;999.90;;;25.40;93.90;;;;;;5037845;28;20068;-70
2023/03/29 07:33:38;;;;;;;1999.90;999.90;;;25.30;94.30;;;;;;5034442;28;20057;-70
2023/03/29 07:36:06;;;;;;;1999.90;999.90;;;25.10;94.40;;;;;;5041856;28;20128;-70
2023/03/29 07:38:33;;;;;;;1999.90;999.90;;;24.90;94.60;;;;;;5032323;28;20028;-71
2023/03/29 07:41:06;;;;;;;1999.90;999.90;;;24.70;94.90;;;;;;5037077;28;20040;-72
2023/03/29 07:43:34;;;;;;;1999.90;999.90;;;24.60;94.90;;;;;;5031861;28;20036;-70
2023/03/29 07:46:04;;;;;;;1999.90;999.90;;;24.50;95.00;;;;;;5035949;28;20064;-70
2023/03/29 07:48:32;;;;;;;1999.90;999.90;;;24.40;95.30;;;;;;5038558;28;20051;-70
2023/03/29 07:50:59;;;;;;;1999.90;999.90;;;24.20;95.40;;;;;;5033285;28;20039;-71
2023/03/29 07:53:28;;;;;;;1999.90;999.90;;;24.10;95.60;;;;;;5032263;28;20037;-70
2023/03/29 07:55:55;;;;;;;1999.90;999.90;;;24.00;96.10;;;;;;5045115;28;20040;-70
2023/03/29 07:58:23;;;;;;;1999.90;999.90;;;23.90;95.90;;;;;;5033046;28;20036;-71
2023/03/29 08:00:50;;;;;;;1999.90;999.90;;;23.70;96.20;;;;;;5032243;28;20029;-71
2023/03/29 08:03:17;;;;;;;1999.90;999.90;;;23.70;96.30;;;;;;5030423;28;20052;-71
2023/03/29 08:05:46;;;;;;;1999.90;999.90;;;23.60;96.70;;;;;;5027471;28;20033;-71
2023/03/29 08:08:14;;;;;;;1999.90;999.90;;;23.40;97.40;;;;;;5030621;28;20057;-71
2023/03/29 08:10:41;;;;;;;1999.90;999.90;;;23.30;98.30;;;;;;5031137;28;20035;-71
2023/03/29 08:13:10;;;;;;;1999.90;999.90;;;23.20;98.50;;;;;;5031436;28;20144;-71
2023/03/29 08:15:40;;;;;;;1999.90;999.90;;;23.10;99.20;;;;;;5032160;28;20033;-71
2023/03/29 08:18:09;;;;;;;1999.90;999.90;;;23.00;99.30;;;;;;5030358;28;20103;-71
2023/03/29 08:20:37;;;;;;;1999.90;999.90;;;22.80;99.10;;;;;;5031234;28;20033;-71
2023/03/29 08:23:05;;;;;;;1999.90;999.90;;;22.80;99.40;;;;;;5031379;28;20783;-71
2023/03/29 08:25:34;;;;;;;1999.90;999.90;;;22.70;99.50;;;;;;5032478;28;20033;-70
2023/03/29 08:28:01;;;;;;;1999.90;999.90;;;22.60;99.50;;;;;;5027242;28;20072;-70
2023/03/29 08:30:28;;;;;;;1999.90;999.90;;;22.50;99.60;;;;;;5031371;28;20028;-70
2023/03/29 08:32:56;;;;;;;1999.90;999.90;;;22.50;99.80;;;;;;5038136;28;20036;-70
2023/03/29 08:35:23;;;;;;;1999.90;999.90;;;22.40;99.70;;;;;;5032821;28;20082;-71
2023/03/29 08:37:51;;;;;;;1999.90;999.90;;;22.30;99.50;;;;;;5033964;28;20048;-70
2023/03/29 08:40:25;;;;;;;1999.90;999.90;;;22.30;99.00;;;;;;5034632;28;20041;-71
2023/03/29 08:42:52;;;;;;;1999.90;999.90;;;22.30;98.90;;;;;;5034353;28;20112;-71
2023/03/29 08:45:38;;;;;;;1999.90;999.90;;;22.30;98.70;;;;;;5037151;28;20037;-71
2023/03/29 08:48:12;;;;;;;1999.90;999.90;;;22.30;98.60;;;;;;5033842;28;20045;-70
2023/03/29 08:50:53;;;;;;;1999.90;999.90;;;22.30;98.50;;;;;;5037188;28;20086;-71
2023/03/29 08:53:36;;;;;;;1999.90;999.90;;;22.30;98.50;;;;;;5033101;28;20041;-71
2023/03/29 08:56:33;;;;;;;1999.90;999.90;;;22.20;98.50;;;;;;5036648;28;20128;-70
2023/03/29 08:59:01;;;;;;;1999.90;999.90;;;22.10;98.80;;;;;;5033932;28;20044;-71
2023/03/29 09:01:37;;;;;;;1999.90;999.90;;;22.10;98.90;;;;;;5031474;28;20083;-71
2023/03/29 09:04:17;;;;;;;1999.90;999.90;;;22.00;99.30;;;;;;5034962;28;20068;-70
2023/03/29 09:06:45;;;;;;;1999.90;999.90;;;22.00;99.40;;;;;;5039024;28;20032;-70
2023/03/29 09:09:19;;;;;;;1999.90;999.90;;;22.00;99.40;;;;;;5037086;28;20483;-70
2023/03/29 09:12:08;;;;;;;1999.90;999.90;;;21.90;99.60;;;;;;5034508;28;20387;-70
2023/03/29 09:15:25;;;;;;;1999.90;999.90;;;21.80;99.60;;;;;;5037654;28;20098;-70
2023/03/29 09:18:31;;;;;;;1999.90;999.90;;;21.80;99.40;;;;;;5032593;28;20083;-70
2023/03/29 09:21:11;;;;;;;1999.90;999.90;;;21.70;99.70;;;;;;5033754;28;20045;-71
2023/03/29 09:24:02;;;;;;;1999.90;999.90;;;21.70;99.90;;;;;;5034255;28;20029;-71
2023/03/29 09:26:30;;;;;;;1999.90;999.90;;;21.60;99.90;;;;;;5034330;28;20024;-70
2023/03/29 09:29:29;;;;;;;1999.90;999.90;;;21.50;99.90;;;;;;5033011;28;20029;-70
2023/03/29 09:31:57;;;;;;;1999.90;999.90;;;21.40;99.90;;;;;;5037248;28;20115;-70
2023/03/29 09:34:49;;;;;;;1999.90;999.90;;;21.40;99.90;;;;;;5031745;28;20114;-72
2023/03/29 09:37:33;;;;;;;1999.90;999.90;;;21.30;99.90;;;;;;5031290;28;20029;-69
2023/03/29 09:40:02;;;;;;;1999.90;999.90;;;21.30;99.90;;;;;;5030923;28;20040;-69
2023/03/29 09:42:30;;;;;;;1999.90;999.90;;;21.20;99.90;;;;;;5028689;28;20026;-70
2023/03/29 09:45:07;;;;;;;1999.90;999.90;;;21.10;99.90;;;;;;5042444;28;20029;-70
2023/03/29 09:47:37;;;;;;;1999.90;999.90;;;21.00;99.90;;;;;;5029126;28;20063;-70
2023/03/29 09:50:18;;;;;;;1999.90;999.90;;;21.00;99.90;;;;;;5031073;28;20399;-70
2023/03/29 09:52:47;;;;;;;1999.90;999.90;;;20.90;99.90;;;;;;5027793;28;20468;-71
2023/03/29 09:55:17;;;;;;;1999.90;999.90;;;20.80;99.90;;;;;;5029708;28;20064;-71
2023/03/29 09:57:45;;;;;;;1999.90;999.90;;;20.80;99.90;;;;;;5036130;28;20690;-71
2023/03/29 10:00:14;;;;;;;1999.90;999.90;;;20.80;99.90;;;;;;5031057;28;20055;-71
2023/03/29 10:02:41;;;;;;;1999.90;999.90;;;20.80;99.90;;;;;;5028246;28;20037;-70
2023/03/29 10:05:16;;;;;;;1999.90;999.90;;;20.80;99.90;;;;;;5034115;28;20029;-71
2023/03/29 10:07:53;;;;;;;1999.90;999.90;;;20.90;99.90;;;;;;5029024;28;20021;-70
2023/03/29 10:10:26;;;;;;;1999.90;999.90;;;20.90;99.90;;;;;;5032318;28;20026;-70
2023/03/29 10:13:10;;;;;;;1999.90;999.90;;;21.00;99.90;;;;;;5027080;28;20033;-71
2023/03/29 10:15:37;;;;;;;1999.90;999.90;;;21.00;99.90;;;;;;5031444;28;20021;-71
2023/03/29 10:18:11;;;;;;;1999.90;999.90;;;21.10;99.90;;;;;;5030581;28;20108;-71
2023/03/29 10:20:40;;;;;;;1999.90;999.90;;;21.10;99.90;;;;;;5033030;28;20396;-71
2023/03/29 10:23:09;;;;;;;1999.90;999.90;;;21.00;99.90;;;;;;5036162;28;20162;-72
2023/03/29 10:25:41;;;;;;;1999.90;999.90;;;21.10;99.90;;;;;;5035464;28;20476;-70
2023/03/29 10:28:19;;;;;;;1999.90;999.90;;;21.20;99.90;;;;;;5032510;28;20029;-72
2023/03/29 10:30:55;;;;;;;1999.90;999.90;;;21.20;99.90;;;;;;5034517;28;20056;-71
2023/03/29 10:33:27;;;;;;;1999.90;999.90;;;21.10;99.90;;;;;;5035479;28;20025;-69
2023/03/29 10:35:56;;;;;;;1999.90;999.90;;;21.10;99.90;;;;;;5040004;28;20120;-72
2023/03/29 10:38:27;;;;;;;1999.90;999.90;;;21.00;99.90;;;;;;5036143;28;20108;-71
2023/03/29 10:41:02;;;;;;;1999.90;999.90;;;20.90;99.90;;;;;;5034594;28;20103;-72
2023/03/29 10:43:39;;;;;;;1999.90;999.90;;;20.80;99.90;;;;;;5025401;28;20026;-70
2023/03/29 10:46:22;;;;;;;1999.90;999.90;;;20.80;99.90;;;;;;5025764;28;20041;-72
2023/03/29 10:48:56;;;;;;;1999.90;999.90;;;20.70;99.90;;;;;;5028023;28;20090;-71
2023/03/29 10:51:28;;;;;;;1999.90;999.90;;;20.60;99.90;;;;;;5031373;28;20029;-70
2023/03/29 10:53:58;;;;;;;1999.90;999.90;;;20.50;99.90;;;;;;5030956;28;20504;-71
2023/03/29 10:56:55;;;;;;;1999.90;999.90;;;20.40;99.90;;;;;;5030970;28;20025;-70
2023/03/29 10:59:43;;;;;;;1999.90;999.90;;;20.30;99.90;;;;;;5031039;28;20088;-71
2023/03/29 11:02:13;;;;;;;1999.90;999.90;;;20.30;99.90;;;;;;5035193;28;20029;-69
2023/03/29 11:05:10;;;;;;;1999.90;999.90;;;20.20;99.90;;;;;;5032834;28;20041;-71
2023/03/29 11:07:59;;;;;;;1999.90;999.90;;;20.20;99.90;;;;;;5027861;28;20033;-71
2023/03/29 11:10:32;;;;;;;1999.90;999.90;;;20.20;99.90;;;;;;5026237;28;20048;-70
2023/03/29 11:13:00;;;;;;;1999.90;999.90;;;20.20;99.90;;;;;;5026439;28;20025;-70
2023/03/29 11:16:13;;;;;;;1999.90;999.90;;;20.20;99.90;;;;;;5036462;28;20029;-71
2023/03/29 11:19:01;;;;;;;1999.90;999.90;;;20.20;99.90;;;;;;4985634;28;20021;-71
2023/03/29 11:21:36;;;;;;;1999.90;999.90;;;20.20;99.90;;;;;;5030447;28;20037;-71
2023/03/29 11:24:26;;;;;;;1999.90;999.90;;;20.10;99.90;;;;;;5031373;28;20028;-70
2023/03/29 11:26:53;;;;;;;1999.90;999.90;;;20.00;99.90;;;;;;5029853;28;20434;-69
2023/03/29 11:29:28;;;;;;;1999.90;999.90;;;19.90;99.90;;;;;;5030749;28;20229;-69
2023/03/29 11:32:28;;;;;;;1999.90;999.90;;;19.90;99.90;;;;;;5029829;28;20040;-69
2023/03/29 11:35:22;;;;;;;1999.90;999.90;;;19.80;99.90;;;;;;5029008;28;20033;-71
2023/03/29 11:38:16;;;;;;;1999.90;999.90;;;19.80;99.90;;;;;;5027880;28;20035;-71
2023/03/29 11:41:02;;;;;;;1999.90;999.90;;;19.80;99.90;;;;;;5030772;28;20391;-70
2023/03/29 11:43:29;;;;;;;;;;;19.70;99.90;;;;;;5026592;28;20078;-70
2023/03/29 11:46:18;;;;;;;1999.90;999.90;;;19.70;99.90;;;;;;5028461;28;19918;-70
2023/03/29 11:49:20;;;;;;;1999.90;999.90;;;19.70;99.90;;;;;;5026280;28;20095;-70
2023/03/29 11:52:05;;;;;;;1999.90;999.90;;;19.70;99.90;;;;;;5026725;28;20042;-71
2023/03/29 11:54:44;;;;;;;1999.90;999.90;;;19.60;99.90;;;;;;5020416;28;20026;-70
2023/03/29 11:57:36;;;;;;;1999.90;999.90;;;19.50;99.90;;;;;;5026709;28;20435;-70
2023/03/29 12:00:26;;;;;;;1999.90;999.90;;;19.50;99.90;;;;;;5032506;28;20038;-71
2023/03/29 12:03:00;;;;;;;1999.90;999.90;;;19.50;99.90;;;;;;5032420;28;20056;-69
2023/03/29 12:05:55;;;;;;;1999.90;999.90;;;19.40;99.90;;;;;;5028864;28;20029;-69
2023/03/29 12:08:32;;;;;;;1999.90;999.90;;;19.30;99.90;;;;;;5032678;28;20049;-70
2023/03/29 12:11:08;;;;;;;1999.90;999.90;;;19.30;99.90;;;;;;5038920;28;20510;-70
2023/03/29 12:14:01;;;;;;;1999.90;999.90;;;19.30;99.90;;;;;;5034878;28;20045;-71
2023/03/29 12:16:31;;;;;;;1999.90;999.90;;;19.30;99.90;;;;;;5035589;28;20028;-71
2023/03/29 12:19:11;;;;;;;1999.90;999.90;;;19.20;99.90;;;;;;5032345;28;20376;-71
2023/03/29 12:21:42;;;;;;;1999.90;999.90;;;19.20;99.90;;;;;;5040290;28;20078;-71
2023/03/29 12:24:14;;;;;;;1999.90;999.90;;;19.10;99.90;;;;;;5034512;28;20041;-73
2023/03/29 12:27:18;;;;;;;1999.90;999.90;;;19.10;99.90;;;;;;5035071;28;20055;-71